Time,TemperatureF,DewpointF,PressureIn,WindDirection,WindDirectionDegrees,WindSpeedMPH,WindSpeedGustMPH,Humidity,HourlyPrecipIn,Conditions,Clouds,dailyrainin,SoftwareType,DateUTC
2013-10-25 00:00:00,36.8,28.0,30.30,WNW,303,0.0,0.0,70,0.00,,,0.00,VWS V15.00,2013-10-25 05:00:00,
2013-10-25 00:04:00,36.8,27.6,30.30,WNW,303,0.0,0.0,69,0.00,,OVC060,0.00,VWS V14.01,2013-10-25 05:04:00,
2013-10-25 00:09:00,36.6,27.4,30.30,WNW,302,3.0,5.0,69,0.00,,OVC060,0.00,VWS V14.01,2013-10-25 05:09:00,
2013-10-25 00:14:00,36.6,27.4,30.30,WNW,302,0.0,5.0,69,0.00,,OVC060,0.00,VWS V14.01,2013-10-25 05:14:00,
2013-10-25 00:15:00,36.8,27.6,30.30,WNW,303,3.0,5.0,69,0.00,,,0.00,VWS V15.00,2013-10-25 05:15:00,
2013-10-25 00:19:00,36.6,27.8,30.30,WNW,302,0.0,0.0,70,0.00,,OVC060,0.00,VWS V14.01,2013-10-25 05:19:00,
2013-10-25 00:24:00,36.6,27.8,30.30,WNW,301,3.0,6.0,70,0.00,,OVC060,0.00,VWS V14.01,2013-10-25 05:24:00,
2013-10-25 00:29:00,36.6,27.8,30.30,WNW,300,3.0,6.0,70,0.00,,OVC060,0.00,VWS V14.01,2013-10-25 05:29:00,
2013-10-25 00:30:00,36.9,27.7,30.30,WNW,303,0.0,5.0,69,0.00,,,0.00,VWS V15.00,2013-10-25 05:30:00,
2013-10-25 00:34:00,36.5,27.7,30.30,WNW,300,0.0,4.0,70,0.00,,OVC060,0.00,VWS V14.01,2013-10-25 05:34:00,
2013-10-25 00:39:00,36.5,28.0,30.30,WNW,300,0.0,4.0,71,0.00,,OVC060,0.00,VWS V14.01,2013-10-25 05:39:00,
2013-10-25 00:44:00,36.5,28.4,30.30,WNW,300,0.0,4.0,72,0.00,,OVC055,0.00,VWS V14.01,2013-10-25 05:44:00,
2013-10-25 00:45:00,36.8,27.6,30.30,WNW,303,0.0,0.0,69,0.00,,,0.00,VWS V15.00,2013-10-25 05:45:00,
2013-10-25 00:49:00,36.3,28.1,30.30,WNW,300,3.0,4.0,72,0.00,,OVC055,0.00,VWS V14.01,2013-10-25 05:49:00,
2013-10-25 00:54:00,36.3,28.5,30.30,WNW,300,2.0,5.0,73,0.00,,OVC055,0.00,VWS V14.01,2013-10-25 05:54:00,
2013-10-25 00:59:00,36.2,28.4,30.30,WNW,300,0.0,5.0,73,0.00,,OVC055,0.00,VWS V14.01,2013-10-25 05:59:00,
2013-10-25 01:00:00,36.8,27.6,30.30,WNW,303,0.0,4.0,69,0.00,,,0.00,VWS V15.00,2013-10-25 06:00:00,
2013-10-25 01:05:00,36.2,28.4,30.30,WNW,300,2.0,4.0,73,0.00,,OVC055,0.00,VWS V14.01,2013-10-25 06:05:00,
2013-10-25 01:10:00,36.0,28.5,30.30,WNW,300,0.0,4.0,74,0.00,,OVC055,0.00,VWS V14.01,2013-10-25 06:10:00,
2013-10-25 01:15:00,36.0,28.5,30.30,WNW,299,0.0,4.0,74,0.00,,OVC055,0.00,VWS V14.01,2013-10-25 06:15:00,
2013-10-25 01:20:00,35.9,28.4,30.30,WNW,299,0.0,0.0,74,0.00,,OVC055,0.00,VWS V14.01,2013-10-25 06:20:00,
2013-10-25 01:25:00,35.9,28.8,30.30,WNW,299,0.0,0.0,75,0.00,,OVC055,0.00,VWS V14.01,2013-10-25 06:25:00,
2013-10-25 01:30:00,35.9,28.8,30.30,WNW,299,0.0,0.0,75,0.00,,OVC055,0.00,VWS V14.01,2013-10-25 06:30:00,
2013-10-25 01:35:00,35.8,28.7,30.30,WNW,299,0.0,5.0,75,0.00,,OVC055,0.00,VWS V14.01,2013-10-25 06:35:00,
2013-10-25 01:40:00,35.9,28.8,30.30,WNW,299,0.0,5.0,75,0.00,,OVC055,0.00,VWS V14.01,2013-10-25 06:40:00,
2013-10-25 01:45:00,35.9,28.8,30.30,WNW,299,0.0,5.0,75,0.00,,OVC055,0.00,VWS V14.01,2013-10-25 06:45:00,
2013-10-25 01:50:00,35.9,28.8,30.30,WNW,299,0.0,0.0,75,0.00,,OVC055,0.00,VWS V14.01,2013-10-25 06:50:00,
2013-10-25 01:55:00,35.9,28.8,30.30,WNW,299,0.0,0.0,75,0.00,,OVC055,0.00,VWS V14.01,2013-10-25 06:55:00,
2013-10-25 02:00:00,35.9,28.8,30.30,WNW,299,0.0,0.0,75,0.00,,OVC055,0.00,VWS V14.01,2013-10-25 07:00:00,
2013-10-25 02:05:00,35.8,29.0,30.30,WNW,299,0.0,0.0,76,0.00,,OVC055,0.00,VWS V14.01,2013-10-25 07:05:00,
2013-10-25 02:10:00,35.8,29.0,30.30,WNW,299,0.0,0.0,76,0.00,,OVC055,0.00,VWS V14.01,2013-10-25 07:10:00,
2013-10-25 02:15:00,35.6,28.8,30.30,WNW,299,0.0,0.0,76,0.00,,OVC055,0.00,VWS V14.01,2013-10-25 07:15:00,
2013-10-25 02:20:00,35.6,28.8,30.30,WNW,299,0.0,0.0,76,0.00,,OVC055,0.00,VWS V14.01,2013-10-25 07:20:00,
2013-10-25 02:25:00,35.6,29.1,30.30,WNW,299,0.0,0.0,77,0.00,,OVC055,0.00,VWS V14.01,2013-10-25 07:25:00,
2013-10-25 02:30:00,35.5,29.0,30.30,WNW,299,0.0,0.0,77,0.00,,OVC055,0.00,VWS V14.01,2013-10-25 07:30:00,
2013-10-25 02:36:00,35.5,29.0,30.30,WNW,299,0.0,0.0,77,0.00,,OVC055,0.00,VWS V14.01,2013-10-25 07:36:00,
2013-10-25 02:41:00,35.5,29.0,30.30,WNW,299,0.0,0.0,77,0.00,,OVC070,0.00,VWS V14.01,2013-10-25 07:41:00,
2013-10-25 02:45:00,35.9,28.8,30.30,WNW,299,0.0,5.0,75,0.00,,,0.00,VWS V15.00,2013-10-25 07:45:00,
2013-10-25 02:46:00,35.5,29.0,30.31,WNW,299,0.0,0.0,77,0.00,,OVC070,0.00,VWS V14.01,2013-10-25 07:46:00,
2013-10-25 02:51:00,35.5,29.3,30.31,WNW,299,0.0,0.0,78,0.00,,OVC055,0.00,VWS V14.01,2013-10-25 07:51:00,
2013-10-25 02:56:00,35.3,29.5,30.31,WNW,299,0.0,0.0,79,0.00,,OVC055,0.00,VWS V14.01,2013-10-25 07:56:00,
2013-10-25 03:00:00,35.9,28.8,30.30,WNW,299,0.0,0.0,75,0.00,,,0.00,VWS V15.00,2013-10-25 08:00:00,
2013-10-25 03:01:00,35.2,29.4,30.31,WNW,299,0.0,0.0,79,0.00,,OVC055,0.00,VWS V14.01,2013-10-25 08:01:00,
2013-10-25 03:06:00,35.2,29.7,30.31,WNW,299,0.0,0.0,80,0.00,,OVC055,0.00,VWS V14.01,2013-10-25 08:06:00,
2013-10-25 03:11:00,35.0,29.5,30.31,WNW,299,0.0,0.0,80,0.00,,OVC055,0.00,VWS V14.01,2013-10-25 08:11:00,
2013-10-25 03:15:00,35.6,28.8,30.30,WNW,299,0.0,0.0,76,0.00,,,0.00,VWS V15.00,2013-10-25 08:15:00,
2013-10-25 03:16:00,35.0,29.5,30.30,WNW,299,0.0,0.0,80,0.00,,OVC055,0.00,VWS V14.01,2013-10-25 08:16:00,
2013-10-25 03:21:00,35.0,29.5,30.30,WNW,299,0.0,0.0,80,0.00,,OVC055,0.00,VWS V14.01,2013-10-25 08:21:00,
2013-10-25 03:26:00,35.0,29.8,30.30,WNW,299,0.0,0.0,81,0.00,,OVC055,0.00,VWS V14.01,2013-10-25 08:26:00,
2013-10-25 03:30:00,35.5,29.0,30.30,WNW,299,0.0,0.0,77,0.00,,,0.00,VWS V15.00,2013-10-25 08:30:00,
2013-10-25 03:31:00,35.0,30.1,30.29,WNW,299,4.0,5.0,82,0.00,,OVC055,0.00,VWS V14.01,2013-10-25 08:31:00,
2013-10-25 03:36:00,34.9,30.0,30.29,WNW,299,3.0,5.0,82,0.00,,OVC055,0.00,VWS V14.01,2013-10-25 08:36:00,
2013-10-25 03:41:00,34.9,30.0,30.29,WNW,299,3.0,5.0,82,0.00,,OVC055,0.00,VWS V14.01,2013-10-25 08:41:00,
2013-10-25 03:45:00,35.5,29.0,30.31,WNW,299,0.0,0.0,77,0.00,,,0.00,VWS V15.00,2013-10-25 08:45:00,
2013-10-25 03:46:00,34.9,30.0,30.29,WNW,299,4.0,5.0,82,0.00,,OVC055,0.00,VWS V14.01,2013-10-25 08:46:00,
2013-10-25 03:51:00,34.9,30.0,30.29,WNW,299,3.0,4.0,82,0.00,,OVC055,0.00,VWS V14.01,2013-10-25 08:51:00,
2013-10-25 03:56:00,34.9,30.0,30.29,WNW,299,4.0,5.0,82,0.00,,OVC055,0.00,VWS V14.01,2013-10-25 08:56:00,
2013-10-25 04:00:00,35.2,29.4,30.31,WNW,299,0.0,0.0,79,0.00,,,0.00,VWS V15.00,2013-10-25 09:00:00,
2013-10-25 04:01:00,34.9,30.0,30.29,WNW,299,3.0,6.0,82,0.00,,OVC055,0.00,VWS V14.01,2013-10-25 09:01:00,
2013-10-25 04:06:00,34.7,29.8,30.29,WNW,299,5.0,5.0,82,0.00,,OVC055,0.00,VWS V14.01,2013-10-25 09:06:00,
2013-10-25 04:11:00,34.7,29.8,30.29,WNW,299,3.0,5.0,82,0.00,,OVC055,0.00,VWS V14.01,2013-10-25 09:11:00,
2013-10-25 04:15:00,35.0,29.5,30.30,WNW,299,0.0,0.0,80,0.00,,,0.00,VWS V15.00,2013-10-25 09:15:00,
2013-10-25 04:16:00,34.7,29.8,30.29,WNW,299,4.0,5.0,82,0.00,,OVC055,0.00,VWS V14.01,2013-10-25 09:16:00,
2013-10-25 04:21:00,34.6,29.7,30.29,WNW,299,3.0,5.0,82,0.00,,OVC055,0.00,VWS V14.01,2013-10-25 09:21:00,
2013-10-25 04:26:00,34.6,29.7,30.29,WNW,299,4.0,5.0,82,0.00,,OVC055,0.00,VWS V14.01,2013-10-25 09:26:00,
2013-10-25 04:30:00,35.0,30.1,30.29,WNW,299,5.0,5.0,82,0.00,,,0.00,VWS V15.00,2013-10-25 09:30:00,
2013-10-25 04:31:00,34.6,30.0,30.29,WNW,299,3.0,3.0,83,0.00,,OVC055,0.00,VWS V14.01,2013-10-25 09:31:00,
2013-10-25 04:36:00,34.6,30.0,30.29,WNW,299,5.0,5.0,83,0.00,,OVC055,0.00,VWS V14.01,2013-10-25 09:36:00,
2013-10-25 04:41:00,34.4,29.8,30.29,WNW,299,3.0,5.0,83,0.00,,OVC055,0.00,VWS V14.01,2013-10-25 09:41:00,
2013-10-25 04:45:00,34.9,30.0,30.29,WNW,299,4.0,5.0,82,0.00,,,0.00,VWS V15.00,2013-10-25 09:45:00,
2013-10-25 04:46:00,34.4,29.8,30.29,WNW,299,3.0,3.0,83,0.00,,OVC055,0.00,VWS V14.01,2013-10-25 09:46:00,
2013-10-25 04:51:00,34.3,30.0,30.29,WNW,299,4.0,5.0,84,0.00,,OVC055,0.00,VWS V14.01,2013-10-25 09:51:00,
2013-10-25 04:56:00,34.1,29.8,30.29,WNW,299,4.0,5.0,84,0.00,,OVC055,0.00,VWS V14.01,2013-10-25 09:56:00,
2013-10-25 05:00:00,34.9,30.0,30.29,WNW,299,4.0,6.0,82,0.00,,,0.00,VWS V15.00,2013-10-25 10:00:00,
2013-10-25 05:01:00,34.1,29.8,30.29,WNW,299,5.0,5.0,84,0.00,,OVC055,0.00,VWS V14.01,2013-10-25 10:01:00,
2013-10-25 05:06:00,34.0,30.0,30.29,WNW,299,4.0,6.0,85,0.00,,OVC055,0.00,VWS V14.01,2013-10-25 10:06:00,
2013-10-25 05:11:00,34.0,30.0,30.29,WNW,299,5.0,6.0,85,0.00,,OVC055,0.00,VWS V14.01,2013-10-25 10:11:00,
2013-10-25 05:15:00,34.7,29.8,30.29,WNW,299,4.0,5.0,82,0.00,,,0.00,VWS V15.00,2013-10-25 10:15:00,
2013-10-25 05:16:00,34.0,30.0,30.29,WNW,299,4.0,4.0,85,0.00,,OVC055,0.00,VWS V14.01,2013-10-25 10:16:00,
2013-10-25 05:21:00,33.8,29.8,30.29,WNW,299,4.0,5.0,85,0.00,,OVC055,0.00,VWS V14.01,2013-10-25 10:21:00,
2013-10-25 05:26:00,33.7,30.5,30.29,WNW,299,4.0,6.0,88,0.00,,OVC055,0.00,VWS V14.01,2013-10-25 10:26:00,
2013-10-25 05:30:00,34.6,30.0,30.29,WNW,299,3.0,5.0,83,0.00,,,0.00,VWS V15.00,2013-10-25 10:30:00,
2013-10-25 05:32:00,33.2,29.2,30.28,WNW,298,4.0,4.0,85,0.00,,OVC055,0.00,VWS V14.01,2013-10-25 10:32:00,
2013-10-25 05:37:00,32.8,28.8,30.28,WNW,298,5.0,6.0,85,0.00,,OVC055,0.00,VWS V14.01,2013-10-25 10:37:00,
2013-10-25 05:42:00,32.4,28.7,30.28,WNW,298,5.0,6.0,86,0.00,,OVC055,0.00,VWS V14.01,2013-10-25 10:42:00,
2013-10-25 05:45:00,34.4,29.8,30.29,WNW,299,3.0,5.0,83,0.00,,,0.00,VWS V15.00,2013-10-25 10:45:00,
2013-10-25 05:47:00,32.1,28.4,30.29,WNW,296,4.0,5.0,86,0.00,,OVC055,0.00,VWS V14.01,2013-10-25 10:47:00,
2013-10-25 05:52:00,31.8,28.1,30.29,WNW,294,7.0,7.0,86,0.00,,SCT095,0.00,VWS V14.01,2013-10-25 10:52:00,
2013-10-25 05:57:00,31.6,28.2,30.29,WNW,293,5.0,7.0,87,0.00,,SCT095,0.00,VWS V14.01,2013-10-25 10:57:00,
2013-10-25 06:00:00,34.1,29.8,30.29,WNW,299,5.0,5.0,84,0.00,,,0.00,VWS V15.00,2013-10-25 11:00:00,
2013-10-25 06:02:00,31.3,27.9,30.29,WNW,293,4.0,6.0,87,0.00,,SCT095,0.00,VWS V14.01,2013-10-25 11:02:00,
2013-10-25 06:07:00,31.2,27.8,30.29,WNW,293,5.0,6.0,87,0.00,,SCT095,0.00,VWS V14.01,2013-10-25 11:07:00,
2013-10-25 06:12:00,30.9,27.8,30.29,WNW,293,5.0,6.0,88,0.00,,SCT095,0.00,VWS V14.01,2013-10-25 11:12:00,
2013-10-25 06:15:00,34.0,30.0,30.29,WNW,299,4.0,6.0,85,0.00,,,0.00,VWS V15.00,2013-10-25 11:15:00,
2013-10-25 06:17:00,30.7,27.6,30.29,WNW,292,6.0,7.0,88,0.00,,SCT095,0.00,VWS V14.01,2013-10-25 11:17:00,
2013-10-25 06:22:00,30.6,27.5,30.29,West,279,6.0,9.0,88,0.00,,SCT095,0.00,VWS V14.01,2013-10-25 11:22:00,
2013-10-25 06:27:00,30.4,27.3,30.29,West,259,5.0,9.0,88,0.00,,SCT095,0.00,VWS V14.01,2013-10-25 11:27:00,
2013-10-25 06:30:00,33.2,29.2,30.28,WNW,298,4.0,6.0,85,0.00,,,0.00,VWS V15.00,2013-10-25 11:30:00,
2013-10-25 06:32:00,30.3,27.5,30.29,WSW,256,5.0,6.0,89,0.00,,SCT095,0.00,VWS V14.01,2013-10-25 11:32:00,
2013-10-25 06:37:00,30.1,27.3,30.29,WSW,253,6.0,9.0,89,0.00,,SCT095,0.00,VWS V14.01,2013-10-25 11:37:00,
2013-10-25 06:42:00,30.0,27.2,30.29,WSW,251,6.0,9.0,89,0.00,,CLR,0.00,VWS V14.01,2013-10-25 11:42:00,
2013-10-25 06:45:00,32.1,28.4,30.29,WNW,296,4.0,6.0,86,0.00,,,0.00,VWS V15.00,2013-10-25 11:45:00,
2013-10-25 06:47:00,29.8,27.0,30.29,WSW,251,4.0,6.0,89,0.00,,CLR,0.00,VWS V14.01,2013-10-25 11:47:00,
2013-10-25 06:52:00,29.8,27.2,30.29,WSW,248,6.0,10.0,90,0.00,,CLR,0.00,VWS V14.01,2013-10-25 11:52:00,
2013-10-25 06:57:00,29.8,27.2,30.29,WSW,248,6.0,10.0,90,0.00,,CLR,0.00,VWS V14.01,2013-10-25 11:57:00,
2013-10-25 07:00:00,31.3,27.9,30.29,WNW,293,6.0,7.0,87,0.00,,,0.00,VWS V15.00,2013-10-25 12:00:00,
2013-10-25 07:02:00,29.8,27.2,30.29,WSW,246,5.0,8.0,90,0.00,,CLR,0.00,VWS V14.01,2013-10-25 12:02:00,
2013-10-25 07:07:00,29.8,27.2,30.29,WSW,243,6.0,9.0,90,0.00,,CLR,0.00,VWS V14.01,2013-10-25 12:07:00,
2013-10-25 07:12:00,29.8,27.2,30.29,WSW,241,6.0,9.0,90,0.00,,CLR,0.00,VWS V14.01,2013-10-25 12:12:00,
2013-10-25 07:15:00,30.9,27.8,30.29,WNW,292,6.0,7.0,88,0.00,,,0.00,VWS V15.00,2013-10-25 12:15:00,
2013-10-25 07:17:00,29.8,27.2,30.28,WSW,239,9.0,9.0,90,0.00,,CLR,0.00,VWS V14.01,2013-10-25 12:17:00,
2013-10-25 07:22:00,29.7,27.1,30.28,SW,226,8.0,10.0,90,0.00,,CLR,0.00,VWS V14.01,2013-10-25 12:22:00,
2013-10-25 07:27:00,29.5,27.2,30.28,SW,217,7.0,10.0,91,0.00,,CLR,0.00,VWS V14.01,2013-10-25 12:27:00,
2013-10-25 07:30:00,30.3,27.5,30.29,WSW,256,5.0,9.0,89,0.00,,,0.00,VWS V15.00,2013-10-25 12:30:00,
2013-10-25 07:32:00,29.5,27.2,30.27,SW,215,7.0,9.0,91,0.00,,CLR,0.00,VWS V14.01,2013-10-25 12:32:00,
2013-10-25 07:37:00,29.5,27.2,30.27,SSW,213,8.0,9.0,91,0.00,,CLR,0.00,VWS V14.01,2013-10-25 12:37:00,
2013-10-25 07:42:00,29.5,27.2,30.27,SSW,210,6.0,11.0,91,0.00,,CLR,0.00,VWS V14.01,2013-10-25 12:42:00,
2013-10-25 07:45:00,29.8,27.0,30.29,WSW,251,5.0,9.0,89,0.00,,,0.00,VWS V15.00,2013-10-25 12:45:00,
2013-10-25 07:47:00,29.5,27.2,30.27,SSW,206,9.0,10.0,91,0.00,,CLR,0.00,VWS V14.01,2013-10-25 12:47:00,
2013-10-25 07:52:00,29.5,27.2,30.27,SSW,203,10.0,11.0,91,0.00,,CLR,0.00,VWS V14.01,2013-10-25 12:52:00,
2013-10-25 07:57:00,29.5,27.2,30.27,SSW,200,7.0,11.0,91,0.00,,CLR,0.00,VWS V14.01,2013-10-25 12:57:00,
2013-10-25 08:00:00,29.8,27.2,30.29,WSW,246,6.0,10.0,90,0.00,,,0.00,VWS V15.00,2013-10-25 13:00:00,
2013-10-25 08:02:00,29.5,27.2,30.26,SSW,198,7.0,11.0,91,0.00,,CLR,0.00,VWS V14.01,2013-10-25 13:02:00,
2013-10-25 08:08:00,29.5,27.2,30.26,SSW,198,7.0,11.0,91,0.00,,CLR,0.00,VWS V14.01,2013-10-25 13:08:00,
2013-10-25 08:13:00,29.5,27.2,30.26,SSW,195,7.0,11.0,91,0.00,,CLR,0.00,VWS V14.01,2013-10-25 13:13:00,
2013-10-25 08:15:00,29.8,27.2,30.28,WSW,239,7.0,9.0,90,0.00,,,0.00,VWS V15.00,2013-10-25 13:15:00,
2013-10-25 08:18:00,29.8,27.5,30.26,SSW,194,9.0,11.0,91,0.00,,CLR,0.00,VWS V14.01,2013-10-25 13:18:00,
2013-10-25 08:23:00,30.1,28.1,30.26,SSW,193,9.0,11.0,92,0.00,,CLR,0.00,VWS V14.01,2013-10-25 13:23:00,
2013-10-25 08:28:00,30.4,28.1,30.26,SSW,193,7.0,12.0,91,0.00,,CLR,0.00,VWS V14.01,2013-10-25 13:28:00,
2013-10-25 08:30:00,29.5,27.2,30.27,SW,215,6.0,10.0,91,0.00,,,0.00,VWS V15.00,2013-10-25 13:30:00,
2013-10-25 08:33:00,30.7,28.4,30.25,SSW,194,9.0,9.0,91,0.00,,CLR,0.00,VWS V14.01,2013-10-25 13:33:00,
2013-10-25 08:38:00,31.0,28.7,30.25,SSW,194,9.0,12.0,91,0.00,,CLR,0.00,VWS V14.01,2013-10-25 13:38:00,
2013-10-25 08:43:00,31.3,28.7,30.25,SSW,195,7.0,12.0,90,0.00,,CLR,0.00,VWS V14.01,2013-10-25 13:43:00,
2013-10-25 08:45:00,29.5,27.2,30.27,SSW,207,7.0,11.0,91,0.00,,,0.00,VWS V15.00,2013-10-25 13:45:00,
2013-10-25 08:48:00,31.6,29.0,30.25,SSW,195,6.0,11.0,90,0.00,,CLR,0.00,VWS V14.01,2013-10-25 13:48:00,
2013-10-25 08:53:00,31.9,29.0,30.25,SSW,195,6.0,11.0,89,0.00,,CLR,0.00,VWS V14.01,2013-10-25 13:53:00,
2013-10-25 08:58:00,32.2,29.0,30.25,South,191,9.0,13.0,88,0.00,,CLR,0.00,VWS V14.01,2013-10-25 13:58:00,
2013-10-25 09:00:00,29.5,27.2,30.26,SSW,199,10.0,11.0,91,0.00,,,0.00,VWS V15.00,2013-10-25 14:00:00,
2013-10-25 09:03:00,32.5,29.1,30.25,South,186,11.0,12.0,87,0.00,,CLR,0.00,VWS V14.01,2013-10-25 14:03:00,
2013-10-25 09:08:00,32.9,29.2,30.25,South,188,10.0,14.0,86,0.00,,CLR,0.00,VWS V14.01,2013-10-25 14:08:00,
2013-10-25 09:13:00,33.2,29.2,30.25,SSW,198,11.0,14.0,85,0.00,,CLR,0.00,VWS V14.01,2013-10-25 14:13:00,
2013-10-25 09:15:00,29.7,27.4,30.26,SSW,194,8.0,11.0,91,0.00,,,0.00,VWS V15.00,2013-10-25 14:15:00,
2013-10-25 09:18:00,33.8,29.5,30.23,South,185,11.0,11.0,84,0.00,,CLR,0.00,VWS V14.01,2013-10-25 14:18:00,
2013-10-25 09:23:00,34.4,29.8,30.23,South,186,9.0,14.0,83,0.00,,CLR,0.00,VWS V14.01,2013-10-25 14:23:00,
2013-10-25 09:28:00,34.9,29.7,30.23,SSW,196,14.0,17.0,81,0.00,,CLR,0.00,VWS V14.01,2013-10-25 14:28:00,
2013-10-25 09:30:00,30.6,28.3,30.25,SSW,194,6.0,12.0,91,0.00,,,0.00,VWS V15.00,2013-10-25 14:30:00,
2013-10-25 09:33:00,35.2,29.4,30.22,SSW,213,14.0,15.0,79,0.00,,CLR,0.00,VWS V14.01,2013-10-25 14:33:00,
2013-10-25 09:38:00,35.5,29.6,30.22,South,190,9.0,15.0,79,0.00,,CLR,0.00,VWS V14.01,2013-10-25 14:38:00,
2013-10-25 09:43:00,35.9,29.4,30.22,SSW,210,5.0,15.0,77,0.00,,CLR,0.00,VWS V14.01,2013-10-25 14:43:00,
2013-10-25 09:45:00,31.5,28.9,30.25,SSW,195,7.0,12.0,90,0.00,,,0.00,VWS V15.00,2013-10-25 14:45:00,
2013-10-25 09:48:00,36.3,29.5,30.22,SSW,204,13.0,14.0,76,0.00,,CLR,0.00,VWS V14.01,2013-10-25 14:48:00,
2013-10-25 09:53:00,36.6,29.4,30.22,SSW,202,7.0,14.0,75,0.00,,CLR,0.00,VWS V14.01,2013-10-25 14:53:00,
2013-10-25 09:58:00,36.9,29.4,30.22,SSW,201,9.0,17.0,74,0.00,,CLR,0.00,VWS V14.01,2013-10-25 14:58:00,
2013-10-25 10:00:00,32.5,29.4,30.25,South,191,11.0,13.0,88,0.00,,,0.00,VWS V15.00,2013-10-25 15:00:00,
2013-10-25 10:03:00,37.3,29.5,30.20,SSW,212,11.0,15.0,73,0.00,,CLR,0.00,VWS V14.01,2013-10-25 15:03:00,
2013-10-25 10:08:00,37.6,29.1,30.20,SSW,206,5.0,17.0,71,0.00,,CLR,0.00,VWS V14.01,2013-10-25 15:08:00,
2013-10-25 10:13:00,37.8,28.9,30.20,SSW,198,12.0,17.0,70,0.00,,CLR,0.00,VWS V14.01,2013-10-25 15:13:00,
2013-10-25 10:15:00,33.7,29.4,30.23,South,185,5.0,14.0,84,0.00,,,0.00,VWS V15.00,2013-10-25 15:15:00,
2013-10-25 10:18:00,38.0,29.1,30.20,South,189,12.0,14.0,70,0.00,,CLR,0.00,VWS V14.01,2013-10-25 15:18:00,
2013-10-25 10:23:00,38.3,29.0,30.20,South,190,13.0,17.0,69,0.00,,CLR,0.00,VWS V14.01,2013-10-25 15:23:00,
2013-10-25 10:28:00,38.3,28.3,30.20,SSW,198,12.0,19.0,67,0.00,,CLR,0.00,VWS V14.01,2013-10-25 15:28:00,
2013-10-25 10:30:00,35.0,29.2,30.22,South,184,10.0,18.0,79,0.00,,,0.00,VWS V15.00,2013-10-25 15:30:00,
2013-10-25 10:33:00,38.6,27.9,30.18,SSW,207,12.0,20.0,65,0.00,,CLR,0.00,VWS V14.01,2013-10-25 15:33:00,
2013-10-25 10:38:00,38.9,28.1,30.18,SSW,201,16.0,22.0,65,0.00,,CLR,0.00,VWS V14.01,2013-10-25 15:38:00,
2013-10-25 10:43:00,39.1,28.3,30.18,SSW,195,14.0,22.0,65,0.00,,CLR,0.00,VWS V14.01,2013-10-25 15:43:00,
2013-10-25 10:45:00,36.2,29.4,30.22,SSW,194,5.0,17.0,76,0.00,,,0.00,VWS V15.00,2013-10-25 15:45:00,
2013-10-25 10:48:00,39.2,28.8,30.17,South,180,7.0,13.0,66,0.00,,CLR,0.00,VWS V14.01,2013-10-25 15:48:00,
2013-10-25 10:53:00,39.3,28.5,30.17,SSW,211,15.0,18.0,65,0.00,,CLR,0.00,VWS V14.01,2013-10-25 15:53:00,
2013-10-25 10:58:00,39.3,28.2,30.17,SSW,197,18.0,26.0,64,0.00,,CLR,0.00,VWS V14.01,2013-10-25 15:58:00,
2013-10-25 11:00:00,37.2,29.7,30.20,SSW,201,13.0,17.0,74,0.00,,,0.00,VWS V15.00,2013-10-25 16:00:00,
2013-10-25 11:03:00,39.3,27.8,30.17,SSW,202,21.0,24.0,63,0.00,,CLR,0.00,VWS V14.01,2013-10-25 16:03:00,
2013-10-25 11:09:00,39.5,28.4,30.17,SSW,193,18.0,24.0,64,0.00,,CLR,0.00,VWS V14.01,2013-10-25 16:09:00,
2013-10-25 11:14:00,39.5,28.4,30.17,South,181,14.0,24.0,64,0.00,,CLR,0.00,VWS V14.01,2013-10-25 16:14:00,
2013-10-25 11:15:00,37.9,29.0,30.20,SSW,202,10.0,17.0,70,0.00,,,0.00,VWS V15.00,2013-10-25 16:15:00,
2013-10-25 11:19:00,39.6,28.4,30.15,SSW,198,18.0,21.0,64,0.00,,CLR,0.00,VWS V14.01,2013-10-25 16:19:00,
2013-10-25 11:24:00,39.8,28.6,30.15,SSW,195,16.0,22.0,64,0.00,,CLR,0.00,VWS V14.01,2013-10-25 16:24:00,
2013-10-25 11:29:00,39.9,28.3,30.15,SSW,197,19.0,23.0,63,0.00,,CLR,0.00,VWS V14.01,2013-10-25 16:29:00,
2013-10-25 11:30:00,38.5,27.8,30.18,SW,217,14.0,21.0,65,0.00,,,0.00,VWS V15.00,2013-10-25 16:30:00,
2013-10-25 11:34:00,40.5,29.3,30.14,SSE,167,18.0,19.0,64,0.00,,CLR,0.00,VWS V14.01,2013-10-25 16:34:00,
2013-10-25 11:39:00,41.3,29.3,30.14,South,188,18.0,23.0,62,0.00,,CLR,0.00,VWS V14.01,2013-10-25 16:39:00,
2013-10-25 11:44:00,41.5,29.5,30.14,SSW,192,15.0,23.0,62,0.00,,CLR,0.00,VWS V14.01,2013-10-25 16:44:00,
2013-10-25 11:45:00,39.1,28.3,30.17,SSW,209,9.0,22.0,65,0.00,,,0.00,VWS V15.00,2013-10-25 16:45:00,
2013-10-25 11:49:00,41.8,29.4,30.12,SSW,197,9.0,21.0,61,0.00,,CLR,0.00,VWS V14.01,2013-10-25 16:49:00,
2013-10-25 11:54:00,42.6,30.5,30.12,SSW,199,18.0,21.0,62,0.00,,CLR,0.00,VWS V14.01,2013-10-25 16:54:00,
2013-10-25 11:59:00,42.8,29.9,30.12,SSW,193,13.0,25.0,60,0.00,,CLR,0.00,VWS V14.01,2013-10-25 16:59:00,
2013-10-25 12:00:00,39.3,28.2,30.17,SSW,197,16.0,26.0,64,0.00,,,0.00,VWS V15.00,2013-10-25 17:00:00,
2013-10-25 12:04:00,42.5,29.6,30.10,South,182,15.0,22.0,60,0.00,,CLR,0.00,VWS V14.01,2013-10-25 17:04:00,
2013-10-25 12:09:00,42.5,29.2,30.10,South,188,15.0,24.0,59,0.00,,CLR,0.00,VWS V14.01,2013-10-25 17:09:00,
2013-10-25 12:14:00,42.3,29.4,30.10,SSW,196,19.0,26.0,60,0.00,,CLR,0.00,VWS V14.01,2013-10-25 17:14:00,
2013-10-25 12:15:00,39.5,28.7,30.15,South,186,15.0,24.0,65,0.00,,,0.00,VWS V15.00,2013-10-25 17:15:00,
2013-10-25 12:19:00,42.3,29.4,30.09,South,179,20.0,25.0,60,0.00,,CLR,0.00,VWS V14.01,2013-10-25 17:19:00,
2013-10-25 12:24:00,42.5,29.6,30.09,SSW,197,19.0,26.0,60,0.00,,CLR,0.00,VWS V14.01,2013-10-25 17:24:00,
2013-10-25 12:29:00,42.8,29.9,30.09,South,185,20.0,26.0,60,0.00,,CLR,0.00,VWS V14.01,2013-10-25 17:29:00,
2013-10-25 12:30:00,40.1,28.5,30.14,South,191,14.0,23.0,63,0.00,,,0.00,VWS V15.00,2013-10-25 17:30:00,
2013-10-25 12:34:00,42.6,29.7,30.08,South,184,23.0,27.0,60,0.00,,CLR,0.00,VWS V14.01,2013-10-25 17:34:00,
2013-10-25 12:40:00,42.8,30.3,30.08,SW,214,16.0,27.0,61,0.00,,CLR,0.00,VWS V14.01,2013-10-25 17:40:00,
2013-10-25 12:45:00,43.3,30.0,30.08,South,189,21.0,27.0,59,0.00,,CLR,0.00,VWS V14.01,2013-10-25 17:45:00,
2013-10-25 12:50:00,43.9,31.3,30.05,SSW,195,14.0,20.0,61,0.00,,CLR,0.00,VWS V14.01,2013-10-25 17:50:00,
2013-10-25 12:55:00,44.1,31.1,30.05,South,183,17.0,20.0,60,0.00,,CLR,0.00,VWS V14.01,2013-10-25 17:55:00,
2013-10-25 13:00:00,44.1,30.7,30.05,South,177,18.0,20.0,59,0.00,,CLR,0.00,VWS V14.01,2013-10-25 18:00:00,
2013-10-25 13:05:00,43.9,30.1,30.04,South,176,15.0,21.0,58,0.00,,CLR,0.00,VWS V14.01,2013-10-25 18:05:00,
2013-10-25 13:10:00,44.1,30.7,30.04,SSW,195,16.0,23.0,59,0.00,,CLR,0.00,VWS V14.01,2013-10-25 18:10:00,
2013-10-25 13:15:00,44.3,31.3,30.04,South,173,16.0,23.0,60,0.00,,CLR,0.00,VWS V14.01,2013-10-25 18:15:00,
2013-10-25 13:20:00,45.4,31.1,30.02,South,172,15.0,18.0,57,0.00,,CLR,0.00,VWS V14.01,2013-10-25 18:20:00,
2013-10-25 13:25:00,45.2,30.9,30.02,South,179,20.0,24.0,57,0.00,,CLR,0.00,VWS V14.01,2013-10-25 18:25:00,
2013-10-25 13:30:00,46.0,31.2,30.02,SSE,156,17.0,24.0,56,0.00,,CLR,0.00,VWS V14.01,2013-10-25 18:30:00,
2013-10-25 13:35:00,46.2,31.8,30.00,South,174,15.0,22.0,57,0.00,,CLR,0.00,VWS V14.01,2013-10-25 18:35:00,
2013-10-25 13:40:00,46.2,31.4,30.00,SSW,194,13.0,22.0,56,0.00,,BKN120,0.00,VWS V14.01,2013-10-25 18:40:00,
2013-10-25 13:45:00,46.5,31.2,30.00,South,182,16.0,23.0,55,0.00,,BKN120,0.00,VWS V14.01,2013-10-25 18:45:00,
2013-10-25 13:50:00,46.5,32.5,29.99,SSW,202,20.0,23.0,58,0.00,,BKN120,0.00,VWS V14.01,2013-10-25 18:50:00,
2013-10-25 13:55:00,46.5,32.1,29.99,South,189,23.0,27.0,57,0.00,,BKN120,0.00,VWS V14.01,2013-10-25 18:55:00,
2013-10-25 14:00:00,46.4,32.4,29.99,SSW,207,19.0,27.0,58,0.00,,SCT055,0.00,VWS V14.01,2013-10-25 19:00:00,
2013-10-25 14:05:00,46.4,32.0,29.97,SSW,204,12.0,24.0,57,0.00,,SCT055,0.00,VWS V14.01,2013-10-25 19:05:00,
2013-10-25 14:10:00,46.5,32.1,29.97,SSW,199,23.0,26.0,57,0.00,,SCT055,0.00,VWS V14.01,2013-10-25 19:10:00,
2013-10-25 14:15:00,46.8,32.8,29.97,South,178,19.0,26.0,58,0.00,,SCT055,0.00,VWS V14.01,2013-10-25 19:15:00,
2013-10-25 14:20:00,47.1,32.7,29.95,South,184,19.0,24.0,57,0.00,,SCT055,0.00,VWS V14.01,2013-10-25 19:20:00,
2013-10-25 14:25:00,47.3,32.8,29.95,SSW,193,21.0,28.0,57,0.00,,SCT055,0.00,VWS V14.01,2013-10-25 19:25:00,
2013-10-25 14:30:00,47.6,33.6,29.95,South,187,15.0,28.0,58,0.00,,SCT055,0.00,VWS V14.01,2013-10-25 19:30:00,
2013-10-25 14:35:00,48.0,33.5,29.93,SSW,198,12.0,22.0,57,0.00,,SCT055,0.00,VWS V14.01,2013-10-25 19:35:00,
2013-10-25 14:40:00,48.6,34.1,29.93,SSW,193,17.0,22.0,57,0.00,,SCT120,0.00,VWS V14.01,2013-10-25 19:40:00,
2013-10-25 14:45:00,48.8,33.8,29.93,South,187,16.0,25.0,56,0.00,,SCT120,0.00,VWS V14.01,2013-10-25 19:45:00,
2013-10-25 14:50:00,48.8,34.3,29.92,SSW,197,19.0,29.0,57,0.00,,CLR,0.00,VWS V14.01,2013-10-25 19:50:00,
2013-10-25 14:55:00,48.8,34.7,29.92,South,190,17.0,29.0,58,0.00,,CLR,0.00,VWS V14.01,2013-10-25 19:55:00,
2013-10-25 15:00:00,48.9,34.8,29.91,South,191,20.0,32.0,58,0.00,,CLR,0.00,VWS V14.01,2013-10-25 20:00:00,
2013-10-25 15:05:00,49.2,34.2,29.91,SW,218,17.0,27.0,56,0.00,,CLR,0.00,VWS V14.01,2013-10-25 20:05:00,
2013-10-25 15:10:00,49.5,34.9,29.91,SSW,207,23.0,28.0,57,0.00,,CLR,0.00,VWS V14.01,2013-10-25 20:10:00,
2013-10-25 15:15:00,49.6,35.0,29.90,SW,214,15.0,30.0,57,0.00,,CLR,0.00,VWS V14.01,2013-10-25 20:15:00,
2013-10-25 15:20:00,49.8,34.8,29.90,SSW,205,14.0,25.0,56,0.00,,CLR,0.00,VWS V14.01,2013-10-25 20:20:00,
2013-10-25 15:25:00,49.8,35.2,29.90,SSW,206,10.0,25.0,57,0.00,,CLR,0.00,VWS V14.01,2013-10-25 20:25:00,
2013-10-25 15:30:00,49.9,35.7,29.89,SSW,200,13.0,25.0,58,0.00,,CLR,0.00,VWS V14.01,2013-10-25 20:30:00,
2013-10-25 15:35:00,49.9,35.3,29.89,South,189,13.0,23.0,57,0.00,,CLR,0.00,VWS V14.01,2013-10-25 20:35:00,
2013-10-25 15:41:00,49.9,34.8,29.89,SSW,210,16.0,25.0,56,0.00,,CLR,0.00,VWS V14.01,2013-10-25 20:41:00,
2013-10-25 15:45:00,48.6,33.6,29.92,South,184,18.0,25.0,56,0.00,,,0.00,VWS V15.00,2013-10-25 20:45:00,
2013-10-25 15:46:00,49.9,35.3,29.86,South,191,17.0,26.0,57,0.00,,CLR,0.00,VWS V14.01,2013-10-25 20:46:00,
2013-10-25 15:51:00,49.9,35.3,29.86,SSW,193,25.0,27.0,57,0.00,,CLR,0.00,VWS V14.01,2013-10-25 20:51:00,
2013-10-25 15:56:00,49.9,34.8,29.86,South,188,24.0,32.0,56,0.00,,CLR,0.00,VWS V14.01,2013-10-25 20:56:00,
2013-10-25 16:00:00,49.1,35.0,29.91,South,187,15.0,32.0,58,0.00,,,0.00,VWS V15.00,2013-10-25 21:00:00,
2013-10-25 16:01:00,50.1,35.5,29.84,SSW,197,17.0,32.0,57,0.00,,CLR,0.00,VWS V14.01,2013-10-25 21:01:00,
2013-10-25 16:06:00,50.1,35.0,29.84,SSW,199,17.0,26.0,56,0.00,,CLR,0.00,VWS V14.01,2013-10-25 21:06:00,
2013-10-25 16:11:00,50.1,35.0,29.84,SSW,198,19.0,29.0,56,0.00,,CLR,0.00,VWS V14.01,2013-10-25 21:11:00,
2013-10-25 16:15:00,49.6,35.0,29.90,SW,220,21.0,30.0,57,0.00,,,0.00,VWS V15.00,2013-10-25 21:15:00,
2013-10-25 16:16:00,50.1,35.5,29.83,SSW,203,16.0,33.0,57,0.00,,CLR,0.00,VWS V14.01,2013-10-25 21:16:00,
2013-10-25 16:21:00,50.2,35.1,29.83,SSW,198,26.0,26.0,56,0.00,,CLR,0.00,VWS V14.01,2013-10-25 21:21:00,
2013-10-25 16:26:00,50.4,35.3,29.83,SSW,192,15.0,26.0,56,0.00,,CLR,0.00,VWS V14.01,2013-10-25 21:26:00,
2013-10-25 16:30:00,49.9,35.7,29.89,South,180,23.0,25.0,58,0.00,,,0.00,VWS V15.00,2013-10-25 21:30:00,
2013-10-25 16:31:00,50.4,35.8,29.81,South,189,17.0,27.0,57,0.00,,CLR,0.00,VWS V14.01,2013-10-25 21:31:00,
2013-10-25 16:36:00,50.2,35.6,29.81,SSW,203,21.0,27.0,57,0.00,,CLR,0.00,VWS V14.01,2013-10-25 21:36:00,
2013-10-25 16:41:00,50.1,35.5,29.81,SSW,203,18.0,28.0,57,0.00,,CLR,0.00,VWS V14.01,2013-10-25 21:41:00,
2013-10-25 16:45:00,49.9,35.3,29.86,SSW,203,20.0,26.0,57,0.00,,,0.00,VWS V15.00,2013-10-25 21:45:00,
2013-10-25 16:46:00,50.1,35.9,29.80,SSW,209,18.0,28.0,58,0.00,,CLR,0.00,VWS V14.01,2013-10-25 21:46:00,
2013-10-25 16:51:00,50.1,35.9,29.80,SW,225,14.0,23.0,58,0.00,,CLR,0.00,VWS V14.01,2013-10-25 21:51:00,
2013-10-25 16:56:00,50.1,35.9,29.80,SW,217,23.0,24.0,58,0.00,,CLR,0.00,VWS V14.01,2013-10-25 21:56:00,
2013-10-25 17:00:00,50.1,35.5,29.84,SSW,210,17.0,32.0,57,0.00,,,0.00,VWS V15.00,2013-10-25 22:00:00,
2013-10-25 17:01:00,50.4,35.8,29.78,South,191,13.0,17.0,57,0.00,,CLR,0.00,VWS V14.01,2013-10-25 22:01:00,
2013-10-25 17:06:00,50.5,36.3,29.78,SSW,198,10.0,24.0,58,0.00,,CLR,0.00,VWS V14.01,2013-10-25 22:06:00,
2013-10-25 17:12:00,50.2,36.0,29.78,SSW,194,19.0,24.0,58,0.00,,CLR,0.00,VWS V14.01,2013-10-25 22:12:00,
2013-10-25 17:15:00,50.1,35.5,29.83,SSW,201,16.0,33.0,57,0.00,,,0.00,VWS V15.00,2013-10-25 22:15:00,
2013-10-25 17:17:00,50.2,36.4,29.78,South,190,12.0,14.0,59,0.00,,CLR,0.00,VWS V14.01,2013-10-25 22:17:00,
2013-10-25 17:22:00,50.2,36.4,29.78,SSW,194,10.0,17.0,59,0.00,,CLR,0.00,VWS V14.01,2013-10-25 22:22:00,
2013-10-25 17:27:00,50.2,36.4,29.78,SSW,192,14.0,20.0,59,0.00,,CLR,0.00,VWS V14.01,2013-10-25 22:27:00,
2013-10-25 17:30:00,50.4,35.8,29.81,South,190,16.0,27.0,57,0.00,,,0.00,VWS V15.00,2013-10-25 22:30:00,
2013-10-25 17:32:00,50.4,36.6,29.77,South,191,14.0,16.0,59,0.00,,CLR,0.00,VWS V14.01,2013-10-25 22:32:00,
2013-10-25 17:37:00,50.4,36.6,29.77,SSW,203,15.0,16.0,59,0.00,,CLR,0.00,VWS V14.01,2013-10-25 22:37:00,
2013-10-25 17:42:00,50.4,36.6,29.77,SSW,198,12.0,19.0,59,0.00,,CLR,0.00,VWS V14.01,2013-10-25 22:42:00,
2013-10-25 17:45:00,50.1,35.9,29.80,SSW,209,18.0,28.0,58,0.00,,,0.00,VWS V15.00,2013-10-25 22:45:00,
2013-10-25 17:47:00,50.4,37.0,29.76,SSW,204,14.0,16.0,60,0.00,,CLR,0.00,VWS V14.01,2013-10-25 22:47:00,
2013-10-25 17:52:00,50.4,37.0,29.76,SSW,208,14.0,20.0,60,0.00,,CLR,0.00,VWS V14.01,2013-10-25 22:52:00,
2013-10-25 17:57:00,50.4,37.0,29.76,SSW,207,16.0,20.0,60,0.00,,CLR,0.00,VWS V14.01,2013-10-25 22:57:00,
2013-10-25 18:00:00,50.4,36.2,29.78,South,188,16.0,25.0,58,0.00,,,0.00,VWS V15.00,2013-10-25 23:00:00,
2013-10-25 18:02:00,50.2,37.3,29.76,SSW,201,15.0,15.0,61,0.00,,CLR,0.00,VWS V14.01,2013-10-25 23:02:00,
2013-10-25 18:07:00,50.4,37.5,29.76,SSW,208,12.0,17.0,61,0.00,,CLR,0.00,VWS V14.01,2013-10-25 23:07:00,
2013-10-25 18:12:00,50.5,37.6,29.76,SSW,201,14.0,19.0,61,0.00,,CLR,0.00,VWS V14.01,2013-10-25 23:12:00,
2013-10-25 18:15:00,50.2,36.4,29.78,South,175,13.0,24.0,59,0.00,,,0.00,VWS V15.00,2013-10-25 23:15:00,
2013-10-25 18:17:00,50.8,37.8,29.75,SSW,210,12.0,14.0,61,0.00,,CLR,0.00,VWS V14.01,2013-10-25 23:17:00,
2013-10-25 18:22:00,50.8,37.8,29.75,SSW,196,15.0,20.0,61,0.00,,CLR,0.00,VWS V14.01,2013-10-25 23:22:00,
2013-10-25 18:27:00,50.8,38.3,29.75,SSW,202,11.0,20.0,62,0.00,,CLR,0.00,VWS V14.01,2013-10-25 23:27:00,
2013-10-25 18:30:00,50.4,36.6,29.77,South,191,16.0,20.0,59,0.00,,,0.00,VWS V15.00,2013-10-25 23:30:00,
2013-10-25 18:32:00,51.0,38.5,29.75,SSW,194,7.0,17.0,62,0.00,,CLR,0.00,VWS V14.01,2013-10-25 23:32:00,
2013-10-25 18:37:00,51.1,38.5,29.75,SSW,213,9.0,17.0,62,0.00,,CLR,0.00,VWS V14.01,2013-10-25 23:37:00,
2013-10-25 18:42:00,51.3,38.3,29.75,SSW,206,7.0,17.0,61,0.00,,CLR,0.00,VWS V14.01,2013-10-25 23:42:00,
2013-10-25 18:45:00,50.4,36.6,29.76,SSW,196,10.0,19.0,59,0.00,,,0.00,VWS V15.00,2013-10-25 23:45:00,
2013-10-25 18:47:00,51.4,38.8,29.75,SSW,212,17.0,20.0,62,0.00,,CLR,0.00,VWS V14.01,2013-10-25 23:47:00,
2013-10-25 18:52:00,51.6,38.6,29.75,SSW,210,17.0,20.0,61,0.00,,BKN095,0.00,VWS V14.01,2013-10-25 23:52:00,
2013-10-25 18:57:00,51.7,39.1,29.75,SW,214,14.0,20.0,62,0.00,,BKN095,0.00,VWS V14.01,2013-10-25 23:57:00,
2013-10-25 19:00:00,50.2,37.3,29.76,SSW,201,15.0,20.0,61,0.00,,,0.00,VWS V15.00,2013-10-26 00:00:00,
2013-10-25 19:02:00,51.9,38.9,29.75,SW,220,16.0,17.0,61,0.00,,BKN095,0.00,VWS V14.01,2013-10-26 00:02:00,
2013-10-25 19:07:00,52.0,39.0,29.75,SSW,210,15.0,17.0,61,0.00,,BKN095,0.00,VWS V14.01,2013-10-26 00:07:00,
2013-10-25 19:12:00,52.2,39.2,29.75,SSW,201,18.0,18.0,61,0.00,,OVC060,0.00,VWS V14.01,2013-10-26 00:12:00,
2013-10-25 19:15:00,50.8,37.8,29.75,SSW,202,13.0,19.0,61,0.00,,,0.00,VWS V15.00,2013-10-26 00:15:00,
2013-10-25 19:17:00,52.3,39.3,29.74,SSW,204,19.0,19.0,61,0.00,,OVC060,0.00,VWS V14.01,2013-10-26 00:17:00,
2013-10-25 19:22:00,52.3,39.3,29.74,SSW,206,16.0,23.0,61,0.00,,OVC060,0.00,VWS V14.01,2013-10-26 00:22:00,
2013-10-25 19:27:00,52.3,39.3,29.74,SW,217,10.0,23.0,61,0.00,,OVC060,0.00,VWS V14.01,2013-10-26 00:27:00,
2013-10-25 19:30:00,51.0,38.0,29.75,SSW,208,7.0,20.0,61,0.00,,,0.00,VWS V15.00,2013-10-26 00:30:00,
2013-10-25 19:32:00,52.5,39.9,29.74,SSW,205,14.0,18.0,62,0.00,,OVC060,0.00,VWS V14.01,2013-10-26 00:32:00,
2013-10-25 19:37:00,52.3,39.7,29.74,SW,218,15.0,21.0,62,0.00,,OVC060,0.00,VWS V14.01,2013-10-26 00:37:00,
2013-10-25 19:42:00,52.2,39.6,29.74,SW,234,5.0,21.0,62,0.00,,OVC120,0.00,VWS V14.01,2013-10-26 00:42:00,
2013-10-25 19:45:00,51.3,38.3,29.75,SSW,211,17.0,17.0,61,0.00,,,0.00,VWS V15.00,2013-10-26 00:45:00,
2013-10-25 19:47:00,52.0,39.4,29.74,SSW,201,10.0,16.0,62,0.00,,OVC120,0.00,VWS V14.01,2013-10-26 00:47:00,
2013-10-25 19:52:00,51.6,39.4,29.74,SW,215,10.0,19.0,63,0.00,,BKN120,0.00,VWS V14.01,2013-10-26 00:52:00,
2013-10-25 19:57:00,51.6,39.8,29.74,SW,220,11.0,19.0,64,0.00,,BKN120,0.00,VWS V14.01,2013-10-26 00:57:00,
2013-10-25 20:00:00,51.9,38.9,29.75,SSW,208,10.0,20.0,61,0.00,,,0.00,VWS V15.00,2013-10-26 01:00:00,
2013-10-25 20:02:00,51.9,39.7,29.75,SW,227,12.0,17.0,63,0.00,,BKN120,0.00,VWS V14.01,2013-10-26 01:02:00,
2013-10-25 20:08:00,52.2,40.0,29.75,SW,229,13.0,17.0,63,0.00,,BKN120,0.00,VWS V14.01,2013-10-26 01:08:00,
2013-10-25 20:13:00,52.3,40.1,29.75,SW,229,10.0,17.0,63,0.00,,BKN120,0.00,VWS V14.01,2013-10-26 01:13:00,
2013-10-25 20:15:00,52.2,39.2,29.74,South,187,14.0,18.0,61,0.00,,,0.00,VWS V15.00,2013-10-26 01:15:00,
2013-10-25 20:18:00,52.6,40.4,29.74,SSW,210,14.0,17.0,63,0.00,,BKN120,0.00,VWS V14.01,2013-10-26 01:18:00,
2013-10-25 20:23:00,52.8,40.6,29.74,SW,228,15.0,18.0,63,0.00,,BKN120,0.00,VWS V14.01,2013-10-26 01:23:00,
2013-10-25 20:28:00,52.9,40.7,29.74,SW,230,7.0,21.0,63,0.00,,BKN120,0.00,VWS V14.01,2013-10-26 01:28:00,
2013-10-25 20:30:00,52.5,39.9,29.74,SW,225,16.0,23.0,62,0.00,,,0.00,VWS V15.00,2013-10-26 01:30:00,
2013-10-25 20:33:00,53.1,40.8,29.74,WSW,241,7.0,15.0,63,0.00,,BKN120,0.00,VWS V14.01,2013-10-26 01:33:00,
2013-10-25 20:38:00,53.1,40.8,29.74,WSW,245,6.0,15.0,63,0.00,,BKN120,0.00,VWS V14.01,2013-10-26 01:38:00,
2013-10-25 20:43:00,53.1,40.8,29.74,WSW,241,6.0,15.0,63,0.00,,SCT110,0.00,VWS V14.01,2013-10-26 01:43:00,
2013-10-25 20:45:00,52.0,39.4,29.74,SSW,213,14.0,21.0,62,0.00,,,0.00,VWS V15.00,2013-10-26 01:45:00,
2013-10-25 20:48:00,53.1,41.3,29.74,WSW,251,8.0,8.0,64,0.00,,SCT110,0.00,VWS V14.01,2013-10-26 01:48:00,
2013-10-25 20:53:00,53.1,41.3,29.74,WSW,253,12.0,15.0,64,0.00,,SCT110,0.00,VWS V14.01,2013-10-26 01:53:00,
2013-10-25 20:58:00,53.1,41.3,29.74,SW,227,16.0,17.0,64,0.00,,SCT110,0.00,VWS V14.01,2013-10-26 01:58:00,
2013-10-25 21:00:00,51.9,39.7,29.75,SW,221,4.0,19.0,63,0.00,,,0.00,VWS V15.00,2013-10-26 02:00:00,
2013-10-25 21:03:00,52.9,41.5,29.74,WSW,255,11.0,11.0,65,0.00,,SCT110,0.00,VWS V14.01,2013-10-26 02:03:00,
2013-10-25 21:08:00,52.6,41.2,29.74,WSW,255,11.0,13.0,65,0.00,,SCT110,0.00,VWS V14.01,2013-10-26 02:08:00,
2013-10-25 21:13:00,52.6,41.2,29.74,WNW,291,12.0,14.0,65,0.00,,SCT110,0.00,VWS V14.01,2013-10-26 02:13:00,
2013-10-25 21:15:00,52.5,40.3,29.74,SW,235,10.0,17.0,63,0.00,,,0.00,VWS V15.00,2013-10-26 02:15:00,
2013-10-25 21:18:00,52.6,41.2,29.75,WNW,284,0.0,13.0,65,0.00,,SCT110,0.00,VWS V14.01,2013-10-26 02:18:00,
2013-10-25 21:23:00,52.9,41.1,29.75,WNW,286,3.0,17.0,64,0.00,,SCT110,0.00,VWS V14.01,2013-10-26 02:23:00,
2013-10-25 21:28:00,53.1,41.3,29.75,West,281,7.0,17.0,64,0.00,,SCT110,0.00,VWS V14.01,2013-10-26 02:28:00,
2013-10-25 21:30:00,53.1,40.8,29.74,SW,233,13.0,21.0,63,0.00,,,0.00,VWS V15.00,2013-10-26 02:30:00,
2013-10-25 21:33:00,53.1,41.7,29.75,WNW,285,4.0,11.0,65,0.00,,SCT110,0.00,VWS V14.01,2013-10-26 02:33:00,
2013-10-25 21:38:00,52.8,41.4,29.75,WNW,296,2.0,12.0,65,0.00,,SCT110,0.00,VWS V14.01,2013-10-26 02:38:00,
2013-10-25 21:43:00,52.6,41.2,29.75,WNW,288,10.0,14.0,65,0.00,,SCT110,0.00,VWS V14.01,2013-10-26 02:43:00,
2013-10-25 21:45:00,53.1,41.3,29.74,WSW,245,6.0,15.0,64,0.00,,,0.00,VWS V15.00,2013-10-26 02:45:00,
2013-10-25 21:48:00,52.8,40.6,29.74,West,277,3.0,10.0,63,0.00,,SCT110,0.00,VWS V14.01,2013-10-26 02:48:00,
2013-10-25 21:53:00,52.8,40.6,29.74,West,279,4.0,10.0,63,0.00,,SCT110,0.00,VWS V14.01,2013-10-26 02:53:00,
2013-10-25 21:58:00,52.5,40.7,29.74,West,279,4.0,10.0,64,0.00,,SCT110,0.00,VWS V14.01,2013-10-26 02:58:00,
2013-10-25 22:00:00,52.9,41.1,29.74,SW,234,7.0,17.0,64,0.00,,,0.00,VWS V15.00,2013-10-26 03:00:00,
2013-10-25 22:03:00,52.3,40.9,29.74,West,276,4.0,9.0,65,0.00,,SCT110,0.00,VWS V14.01,2013-10-26 03:03:00,
2013-10-25 22:08:00,52.2,41.2,29.74,West,273,3.0,11.0,66,0.00,,SCT110,0.00,VWS V14.01,2013-10-26 03:08:00,
2013-10-25 22:13:00,51.9,41.3,29.74,West,272,3.0,11.0,67,0.00,,SCT110,0.00,VWS V14.01,2013-10-26 03:13:00,
2013-10-25 22:15:00,52.6,41.2,29.75,West,270,4.0,15.0,65,0.00,,,0.00,VWS V15.00,2013-10-26 03:15:00,
2013-10-25 22:18:00,51.3,42.2,29.74,West,266,4.0,7.0,71,0.00,,SCT110,0.00,VWS V14.01,2013-10-26 03:18:00,
2013-10-25 22:23:00,51.0,41.2,29.74,West,265,4.0,9.0,69,0.00,,SCT110,0.00,VWS V14.01,2013-10-26 03:23:00,
2013-10-25 22:28:00,50.8,41.0,29.74,West,263,3.0,10.0,69,0.00,,SCT110,0.00,VWS V14.01,2013-10-26 03:28:00,
2013-10-25 22:30:00,53.1,41.7,29.75,West,279,7.0,17.0,65,0.00,,,0.00,VWS V15.00,2013-10-26 03:30:00,
2013-10-25 22:33:00,50.7,41.3,29.74,West,262,4.0,9.0,70,0.00,,SCT110,0.00,VWS V14.01,2013-10-26 03:33:00,
2013-10-25 22:38:00,50.5,41.1,29.74,West,259,5.0,10.0,70,0.00,,SCT110,0.00,VWS V14.01,2013-10-26 03:38:00,
2013-10-25 22:43:00,50.4,41.0,29.74,WSW,254,7.0,10.0,70,0.00,,SCT110,0.00,VWS V14.01,2013-10-26 03:43:00,
2013-10-25 22:45:00,52.8,40.6,29.74,WNW,288,2.0,14.0,63,0.00,,,0.00,VWS V15.00,2013-10-26 03:45:00,
2013-10-25 22:48:00,50.2,41.2,29.74,WSW,254,5.0,7.0,71,0.00,,SCT110,0.00,VWS V14.01,2013-10-26 03:48:00,
2013-10-25 22:53:00,50.1,41.1,29.74,WSW,248,5.0,12.0,71,0.00,,SCT100,0.00,VWS V14.01,2013-10-26 03:53:00,
2013-10-25 22:59:00,50.2,41.2,29.74,WSW,255,4.0,13.0,71,0.00,,SCT100,0.00,VWS V14.01,2013-10-26 03:59:00,
2013-10-25 23:00:00,52.3,40.9,29.74,West,278,4.0,10.0,65,0.00,,,0.00,VWS V15.00,2013-10-26 04:00:00,
2013-10-25 23:01:00,50.2,41.2,29.74,West,264,10.0,13.0,71,0.00,,SCT100,0.00,VWS V14.01,2013-10-26 04:01:00,
2013-10-25 23:02:00,50.2,41.2,29.74,West,262,9.0,13.0,71,0.00,,SCT100,0.00,VWS V14.01,2013-10-26 04:02:00,
2013-10-25 23:04:00,50.4,41.4,29.74,West,260,11.0,11.0,71,0.00,,SCT100,0.00,VWS V14.01,2013-10-26 04:04:00,
2013-10-25 23:05:00,50.4,41.4,29.74,WSW,256,5.0,11.0,71,0.00,,SCT100,0.00,VWS V14.01,2013-10-26 04:05:00,
2013-10-25 23:07:00,50.4,41.4,29.74,West,260,3.0,11.0,71,0.00,,SCT100,0.00,VWS V14.01,2013-10-26 04:07:00,
2013-10-25 23:12:00,50.4,41.4,29.74,West,266,9.0,14.0,71,0.00,,SCT100,0.00,VWS V14.01,2013-10-26 04:12:00,
2013-10-25 23:13:00,50.2,41.2,29.74,West,265,7.0,14.0,71,0.00,,SCT100,0.00,VWS V14.01,2013-10-26 04:13:00,
2013-10-25 23:15:00,51.6,41.4,29.74,West,266,5.0,11.0,68,0.00,,,0.00,VWS V15.00,2013-10-26 04:15:00,
2013-10-25 23:18:00,50.1,41.1,29.74,West,272,3.0,12.0,71,0.00,,SCT100,0.00,VWS V14.01,2013-10-26 04:18:00,
2013-10-25 23:23:00,49.9,40.9,29.74,West,281,6.0,13.0,71,0.00,,SCT100,0.00,VWS V14.01,2013-10-26 04:23:00,
2013-10-25 23:28:00,49.8,40.8,29.74,West,260,13.0,13.0,71,0.00,,SCT100,0.00,VWS V14.01,2013-10-26 04:28:00,
2013-10-25 23:30:00,50.8,41.0,29.74,West,262,2.0,10.0,69,0.00,,,0.00,VWS V15.00,2013-10-26 04:30:00,
2013-10-25 23:33:00,49.6,40.6,29.74,West,262,9.0,14.0,71,0.00,,SCT100,0.00,VWS V14.01,2013-10-26 04:33:00,
2013-10-25 23:38:00,49.5,40.1,29.74,West,277,6.0,14.0,70,0.00,,SCT100,0.00,VWS V14.01,2013-10-26 04:38:00,
2013-10-25 23:43:00,49.5,39.8,29.74,West,273,6.0,14.0,69,0.00,,SCT100,0.00,VWS V14.01,2013-10-26 04:43:00,
2013-10-25 23:45:00,50.2,41.2,29.74,WSW,254,3.0,10.0,71,0.00,,,0.00,VWS V15.00,2013-10-26 04:45:00,
2013-10-25 23:48:00,49.4,40.0,29.74,WNW,283,4.0,10.0,70,0.00,,SCT100,0.00,VWS V14.01,2013-10-26 04:48:00,
2013-10-25 23:53:00,49.2,39.8,29.74,WNW,291,6.0,13.0,70,0.00,,BKN100,0.00,VWS V14.01,2013-10-26 04:53:00,
2013-10-25 23:58:00,49.1,39.8,29.74,WNW,288,0.0,13.0,70,0.00,,BKN100,0.00,VWS V14.01,2013-10-26 04:58:00,